Terminal Aerodrome Forecast
Issued by NWS

Home | Current Version | Previous Version | Text Only | Print | Product List | Glossary On
Versions: 1 2 3 4 5 6 7 8 9 10 11 12 13 14 15 16 17 18 19 20 21 22 23 24 25
000
FTUS43 KAPX 080801 AAA
TAFPLN
TAF AMD
KPLN 080801Z 0808/0906 26013G23KT 4SM -SHSN SCT015 OVC025
      TEMPO 0808/0812 1/2SM SHSN OVC015
     FM081200 27013G24KT 1SM -SHSN BLSN OVC015
     FM081500 30010G21KT 6SM -SHSN BLSN OVC015
     FM081800 33011G19KT 6SM -SHSN BLSN OVC025
     FM090000 33010G18KT P6SM -SHSN OVC030=

USA.gov is the U.S. government's official web portal to all federal, state and local government web resources and services.